sensor_id;sensor_type;location;lat;lon;timestamp;pressure;altitude;pressure_sealevel;temperature
27826;BMP280;15077;49.704;9.908;2024-02-15T00:02:06;98529.00;;;15.21
27826;BMP280;15077;49.704;9.908;2024-02-15T00:04:32;98525.66;;;15.21
27826;BMP280;15077;49.704;9.908;2024-02-15T00:07:00;98527.38;;;15.20
27826;BMP280;15077;49.704;9.908;2024-02-15T00:09:28;98524.06;;;15.18
27826;BMP280;15077;49.704;9.908;2024-02-15T00:11:54;98518.16;;;15.18
27826;BMP280;15077;49.704;9.908;2024-02-15T00:14:20;98516.47;;;15.17
27826;BMP280;15077;49.704;9.908;2024-02-15T00:16:45;98519.91;;;15.16
27826;BMP280;15077;49.704;9.908;2024-02-15T00:19:11;98530.13;;;15.16
27826;BMP280;15077;49.704;9.908;2024-02-15T00:21:37;98525.00;;;15.16
27826;BMP280;15077;49.704;9.908;2024-02-15T00:24:03;98518.19;;;15.16
27826;BMP280;15077;49.704;9.908;2024-02-15T00:26:29;98523.31;;;15.16
27826;BMP280;15077;49.704;9.908;2024-02-15T00:28:54;98525.84;;;15.16
27826;BMP280;15077;49.704;9.908;2024-02-15T00:31:20;98519.91;;;15.16
27826;BMP280;15077;49.704;9.908;2024-02-15T00:33:45;98521.63;;;15.15
27826;BMP280;15077;49.704;9.908;2024-02-15T00:36:11;98509.69;;;15.16
27826;BMP280;15077;49.704;9.908;2024-02-15T00:38:37;98513.91;;;15.17
27826;BMP280;15077;49.704;9.908;2024-02-15T00:41:04;98519.00;;;15.17
27826;BMP280;15077;49.704;9.908;2024-02-15T00:43:34;98518.16;;;15.18
27826;BMP280;15077;49.704;9.908;2024-02-15T00:46:03;98521.56;;;15.17
27826;BMP280;15077;49.704;9.908;2024-02-15T00:48:29;98520.69;;;15.18
27826;BMP280;15077;49.704;9.908;2024-02-15T00:50:55;98518.16;;;15.18
27826;BMP280;15077;49.704;9.908;2024-02-15T00:53:21;98523.25;;;15.18
27826;BMP280;15077;49.704;9.908;2024-02-15T00:55:47;98517.31;;;15.17
27826;BMP280;15077;49.704;9.908;2024-02-15T00:58:12;98509.66;;;15.17
27826;BMP280;15077;49.704;9.908;2024-02-15T01:00:38;98513.84;;;15.18
27826;BMP280;15077;49.704;9.908;2024-02-15T01:03:04;98515.66;;;15.16
27826;BMP280;15077;49.704;9.908;2024-02-15T01:05:29;98510.50;;;15.18
27826;BMP280;15077;49.704;9.908;2024-02-15T01:07:56;98513.84;;;15.18
27826;BMP280;15077;49.704;9.908;2024-02-15T01:10:22;98513.03;;;15.18
27826;BMP280;15077;49.704;9.908;2024-02-15T01:12:50;98518.06;;;15.19
27826;BMP280;15077;49.704;9.908;2024-02-15T01:15:15;98511.22;;;15.20
27826;BMP280;15077;49.704;9.908;2024-02-15T01:17:45;98516.25;;;15.21
27826;BMP280;15077;49.704;9.908;2024-02-15T01:20:11;98516.16;;;15.23
27826;BMP280;15077;49.704;9.908;2024-02-15T01:22:38;98516.94;;;15.25
27826;BMP280;15077;49.704;9.908;2024-02-15T01:25:04;98509.28;;;15.25
27826;BMP280;15077;49.704;9.908;2024-02-15T01:27:29;98522.78;;;15.27
27826;BMP280;15077;49.704;9.908;2024-02-15T01:29:56;98513.53;;;15.24
27826;BMP280;15077;49.704;9.908;2024-02-15T01:32:22;98509.44;;;15.22
27826;BMP280;15077;49.704;9.908;2024-02-15T01:34:48;98514.66;;;15.19
27826;BMP280;15077;49.704;9.908;2024-02-15T01:37:16;98510.50;;;15.18
27826;BMP280;15077;49.704;9.908;2024-02-15T01:39:42;98513.97;;;15.15
27826;BMP280;15077;49.704;9.908;2024-02-15T01:42:07;98509.69;;;15.16
27826;BMP280;15077;49.704;9.908;2024-02-15T01:44:37;98509.69;;;15.16
27826;BMP280;15077;49.704;9.908;2024-02-15T01:47:05;98510.63;;;15.15
27826;BMP280;15077;49.704;9.908;2024-02-15T01:49:31;98511.44;;;15.15
27826;BMP280;15077;49.704;9.908;2024-02-15T01:51:58;98518.28;;;15.15
27826;BMP280;15077;49.704;9.908;2024-02-15T01:54:26;98519.91;;;15.16
27826;BMP280;15077;49.704;9.908;2024-02-15T01:56:53;98517.34;;;15.16
27826;BMP280;15077;49.704;9.908;2024-02-15T01:59:22;98518.16;;;15.18
27826;BMP280;15077;49.704;9.908;2024-02-15T02:01:48;98519.91;;;15.16
27826;BMP280;15077;49.704;9.908;2024-02-15T02:04:15;98519.16;;;15.14
27826;BMP280;15077;49.704;9.908;2024-02-15T02:06:42;98516.63;;;15.14
27826;BMP280;15077;49.704;9.908;2024-02-15T02:09:11;98514.97;;;15.13
27826;BMP280;15077;49.704;9.908;2024-02-15T02:11:38;98516.78;;;15.11
27826;BMP280;15077;49.704;9.908;2024-02-15T02:14:04;98513.41;;;15.10
27826;BMP280;15077;49.704;9.908;2024-02-15T02:16:31;98510.94;;;15.09
27826;BMP280;15077;49.704;9.908;2024-02-15T02:19:01;98511.00;;;15.07
27826;BMP280;15077;49.704;9.908;2024-02-15T02:21:29;98503.44;;;15.06
27826;BMP280;15077;49.704;9.908;2024-02-15T02:23:56;98512.00;;;15.05
27826;BMP280;15077;49.704;9.908;2024-02-15T02:26:23;98500.28;;;15.01
27826;BMP280;15077;49.704;9.908;2024-02-15T02:28:49;98502.81;;;15.01
27826;BMP280;15077;49.704;9.908;2024-02-15T02:31:15;98505.38;;;15.01
27826;BMP280;15077;49.704;9.908;2024-02-15T02:33:41;98503.75;;;15.00
27826;BMP280;15077;49.704;9.908;2024-02-15T02:36:07;98501.28;;;14.99
27826;BMP280;15077;49.704;9.908;2024-02-15T02:38:35;98497.16;;;14.96
27826;BMP280;15077;49.704;9.908;2024-02-15T02:41:06;98490.47;;;14.94
27826;BMP280;15077;49.704;9.908;2024-02-15T02:43:32;98496.66;;;14.90
27826;BMP280;15077;49.704;9.908;2024-02-15T02:45:58;98502.72;;;14.87
27826;BMP280;15077;49.704;9.908;2024-02-15T02:48:23;98492.66;;;14.84
27826;BMP280;15077;49.704;9.908;2024-02-15T02:50:49;98501.22;;;14.83
27826;BMP280;15077;49.704;9.908;2024-02-15T02:53:16;98496.19;;;14.82
27826;BMP280;15077;49.704;9.908;2024-02-15T02:55:42;98492.00;;;14.81
27826;BMP280;15077;49.704;9.908;2024-02-15T02:58:08;98496.28;;;14.80
27826;BMP280;15077;49.704;9.908;2024-02-15T03:00:33;98498.09;;;14.78
27826;BMP280;15077;49.704;9.908;2024-02-15T03:02:59;98487.97;;;14.77
27826;BMP280;15077;49.704;9.908;2024-02-15T03:05:26;98497.34;;;14.76
27826;BMP280;15077;49.704;9.908;2024-02-15T03:07:51;98486.22;;;14.77
27826;BMP280;15077;49.704;9.908;2024-02-15T03:10:17;98498.16;;;14.77
27826;BMP280;15077;49.704;9.908;2024-02-15T03:12:44;98495.63;;;14.77
27826;BMP280;15077;49.704;9.908;2024-02-15T03:15:13;98496.44;;;14.77
27826;BMP280;15077;49.704;9.908;2024-02-15T03:17:40;98497.34;;;14.76
27826;BMP280;15077;49.704;9.908;2024-02-15T03:20:07;98491.41;;;14.76
27826;BMP280;15077;49.704;9.908;2024-02-15T03:22:37;98496.59;;;14.74
27826;BMP280;15077;49.704;9.908;2024-02-15T03:25:07;98500.94;;;14.72
27826;BMP280;15077;49.704;9.908;2024-02-15T03:27:36;98497.56;;;14.72
27826;BMP280;15077;49.704;9.908;2024-02-15T03:30:06;98498.56;;;14.69
27826;BMP280;15077;49.704;9.908;2024-02-15T03:32:31;98496.09;;;14.68
27826;BMP280;15077;49.704;9.908;2024-02-15T03:34:58;98499.53;;;14.67
27826;BMP280;15077;49.704;9.908;2024-02-15T03:37:26;98491.94;;;14.65
27826;BMP280;15077;49.704;9.908;2024-02-15T03:39:52;98490.28;;;14.64
27826;BMP280;15077;49.704;9.908;2024-02-15T03:42:18;98488.50;;;14.66
27826;BMP280;15077;49.704;9.908;2024-02-15T03:44:43;98491.06;;;14.66
27826;BMP280;15077;49.704;9.908;2024-02-15T03:47:09;98488.50;;;14.66
27826;BMP280;15077;49.704;9.908;2024-02-15T03:49:35;98488.50;;;14.66
27826;BMP280;15077;49.704;9.908;2024-02-15T03:52:00;98495.22;;;14.67
27826;BMP280;15077;49.704;9.908;2024-02-15T03:54:27;98488.50;;;14.66
27826;BMP280;15077;49.704;9.908;2024-02-15T03:56:55;98489.47;;;14.64
27826;BMP280;15077;49.704;9.908;2024-02-15T03:59:22;98486.03;;;14.65
27826;BMP280;15077;49.704;9.908;2024-02-15T04:01:55;98496.22;;;14.65
27826;BMP280;15077;49.704;9.908;2024-02-15T04:04:22;98505.44;;;14.67
27826;BMP280;15077;49.704;9.908;2024-02-15T04:06:48;98495.38;;;14.64
27826;BMP280;15077;49.704;9.908;2024-02-15T04:09:15;98501.34;;;14.65
27826;BMP280;15077;49.704;9.908;2024-02-15T04:11:40;98505.59;;;14.64
27826;BMP280;15077;49.704;9.908;2024-02-15T04:14:06;98500.50;;;14.64
27826;BMP280;15077;49.704;9.908;2024-02-15T04:16:32;98501.25;;;14.66
27826;BMP280;15077;49.704;9.908;2024-02-15T04:18:59;98506.28;;;14.68
27826;BMP280;15077;49.704;9.908;2024-02-15T04:21:24;98503.66;;;14.69
27826;BMP280;15077;49.704;9.908;2024-02-15T04:23:52;98492.53;;;14.70
27826;BMP280;15077;49.704;9.908;2024-02-15T04:26:19;98495.16;;;14.69
27826;BMP280;15077;49.704;9.908;2024-02-15T04:28:45;98502.72;;;14.70
27826;BMP280;15077;49.704;9.908;2024-02-15T04:31:17;98491.72;;;14.70
27826;BMP280;15077;49.704;9.908;2024-02-15T04:33:43;98500.19;;;14.70
27826;BMP280;15077;49.704;9.908;2024-02-15T04:36:08;98495.06;;;14.70
27826;BMP280;15077;49.704;9.908;2024-02-15T04:38:34;98499.28;;;14.71
27826;BMP280;15077;49.704;9.908;2024-02-15T04:41:03;98495.84;;;14.72
27826;BMP280;15077;49.704;9.908;2024-02-15T04:43:30;98488.19;;;14.72
27826;BMP280;15077;49.704;9.908;2024-02-15T04:45:58;98493.28;;;14.72
27826;BMP280;15077;49.704;9.908;2024-02-15T04:48:25;98498.41;;;14.72
27826;BMP280;15077;49.704;9.908;2024-02-15T04:50:52;98496.75;;;14.71
27826;BMP280;15077;49.704;9.908;2024-02-15T04:53:20;98495.84;;;14.72
27826;BMP280;15077;49.704;9.908;2024-02-15T04:55:46;98503.50;;;14.72
27826;BMP280;15077;49.704;9.908;2024-02-15T04:58:12;98503.34;;;14.75
27826;BMP280;15077;49.704;9.908;2024-02-15T05:00:38;98496.50;;;14.76
27826;BMP280;15077;49.704;9.908;2024-02-15T05:03:04;98499.91;;;14.76
27826;BMP280;15077;49.704;9.908;2024-02-15T05:05:29;98498.97;;;14.77
27826;BMP280;15077;49.704;9.908;2024-02-15T05:07:55;98503.13;;;14.80
27826;BMP280;15077;49.704;9.908;2024-02-15T05:10:20;98506.47;;;14.80
27826;BMP280;15077;49.704;9.908;2024-02-15T05:12:46;98504.69;;;14.82
27826;BMP280;15077;49.704;9.908;2024-02-15T05:15:15;98507.25;;;14.82
27826;BMP280;15077;49.704;9.908;2024-02-15T05:17:42;98498.75;;;14.82
27826;BMP280;15077;49.704;9.908;2024-02-15T05:20:09;98502.16;;;14.82
27826;BMP280;15077;49.704;9.908;2024-02-15T05:22:38;98503.78;;;14.83
27826;BMP280;15077;49.704;9.908;2024-02-15T05:25:07;98499.44;;;14.85
27826;BMP280;15077;49.704;9.908;2024-02-15T05:27:34;98488.38;;;14.85
27826;BMP280;15077;49.704;9.908;2024-02-15T05:30:00;98482.47;;;14.84
27826;BMP280;15077;49.704;9.908;2024-02-15T05:32:25;98490.94;;;14.85
27826;BMP280;15077;49.704;9.908;2024-02-15T05:34:52;98487.56;;;14.84
27826;BMP280;15077;49.704;9.908;2024-02-15T05:37:20;98484.28;;;14.82
27826;BMP280;15077;49.704;9.908;2024-02-15T05:39:46;98486.75;;;14.84
27826;BMP280;15077;49.704;9.908;2024-02-15T05:42:11;98489.31;;;14.84
27826;BMP280;15077;49.704;9.908;2024-02-15T05:44:37;98489.38;;;14.82
27826;BMP280;15077;49.704;9.908;2024-02-15T05:47:03;98486.84;;;14.82
27826;BMP280;15077;49.704;9.908;2024-02-15T05:49:29;98484.44;;;14.79
27826;BMP280;15077;49.704;9.908;2024-02-15T05:51:55;98477.75;;;14.77
27826;BMP280;15077;49.704;9.908;2024-02-15T05:54:20;98486.38;;;14.74
27826;BMP280;15077;49.704;9.908;2024-02-15T05:56:48;98483.97;;;14.71
27826;BMP280;15077;49.704;9.908;2024-02-15T05:59:17;98483.25;;;14.69
27826;BMP280;15077;49.704;9.908;2024-02-15T06:01:46;98490.97;;;14.68
27826;BMP280;15077;49.704;9.908;2024-02-15T06:04:15;98483.47;;;14.65
27826;BMP280;15077;49.704;9.908;2024-02-15T06:06:40;98473.44;;;14.62
27826;BMP280;15077;49.704;9.908;2024-02-15T06:09:06;98474.47;;;14.58
27826;BMP280;15077;49.704;9.908;2024-02-15T06:11:32;98480.53;;;14.55
27826;BMP280;15077;49.704;9.908;2024-02-15T06:13:57;98484.03;;;14.55
27826;BMP280;15077;49.704;9.908;2024-02-15T06:16:23;98489.13;;;14.55
27826;BMP280;15077;49.704;9.908;2024-02-15T06:18:49;98482.28;;;14.55
27826;BMP280;15077;49.704;9.908;2024-02-15T06:21:14;98490.75;;;14.55
27826;BMP280;15077;49.704;9.908;2024-02-15T06:23:40;98485.66;;;14.55
27826;BMP280;15077;49.704;9.908;2024-02-15T06:26:05;98492.41;;;14.56
27826;BMP280;15077;49.704;9.908;2024-02-15T06:28:34;98486.50;;;14.56
27826;BMP280;15077;49.704;9.908;2024-02-15T06:31:18;98481.47;;;14.55
27826;BMP280;15077;49.704;9.908;2024-02-15T06:34:03;98490.00;;;14.54
27826;BMP280;15077;49.704;9.908;2024-02-15T06:36:53;98488.34;;;14.53
27826;BMP280;15077;49.704;9.908;2024-02-15T06:39:37;98486.81;;;14.50
27826;BMP280;15077;49.704;9.908;2024-02-15T06:42:14;98488.50;;;14.50
27826;BMP280;15077;49.704;9.908;2024-02-15T06:44:46;98489.50;;;14.47
27826;BMP280;15077;49.704;9.908;2024-02-15T06:47:12;98481.00;;;14.47
27826;BMP280;15077;49.704;9.908;2024-02-15T06:49:39;98491.22;;;14.47
27826;BMP280;15077;49.704;9.908;2024-02-15T06:52:08;98493.84;;;14.45
27826;BMP280;15077;49.704;9.908;2024-02-15T06:54:35;98485.28;;;14.46
27826;BMP280;15077;49.704;9.908;2024-02-15T06:57:02;98497.22;;;14.46
27826;BMP280;15077;49.704;9.908;2024-02-15T06:59:27;98494.69;;;14.46
27826;BMP280;15077;49.704;9.908;2024-02-15T07:01:53;98494.69;;;14.46
27826;BMP280;15077;49.704;9.908;2024-02-15T07:04:20;98493.69;;;14.48
27826;BMP280;15077;49.704;9.908;2024-02-15T07:06:46;98500.53;;;14.48
27826;BMP280;15077;49.704;9.908;2024-02-15T07:09:14;98503.06;;;14.48
27826;BMP280;15077;49.704;9.908;2024-02-15T07:11:47;98509.84;;;14.49
27826;BMP280;15077;49.704;9.908;2024-02-15T07:14:13;98506.34;;;14.50
27826;BMP280;15077;49.704;9.908;2024-02-15T07:16:39;98497.81;;;14.51
27826;BMP280;15077;49.704;9.908;2024-02-15T07:19:05;98497.66;;;14.54
27826;BMP280;15077;49.704;9.908;2024-02-15T07:21:31;98491.66;;;14.55
27826;BMP280;15077;49.704;9.908;2024-02-15T07:23:57;98500.06;;;14.56
27826;BMP280;15077;49.704;9.908;2024-02-15T07:26:24;98494.88;;;14.58
27826;BMP280;15077;49.704;9.908;2024-02-15T07:28:54;98491.38;;;14.60
27826;BMP280;15077;49.704;9.908;2024-02-15T07:31:23;98488.66;;;14.63
27826;BMP280;15077;49.704;9.908;2024-02-15T07:33:53;98491.06;;;14.66
27826;BMP280;15077;49.704;9.908;2024-02-15T07:36:19;98496.09;;;14.68
27826;BMP280;15077;49.704;9.908;2024-02-15T07:38:47;98496.09;;;14.68
27826;BMP280;15077;49.704;9.908;2024-02-15T07:41:23;98486.69;;;14.68
27826;BMP280;15077;49.704;9.908;2024-02-15T07:43:49;98491.78;;;14.68
27826;BMP280;15077;49.704;9.908;2024-02-15T07:46:16;98484.88;;;14.70
27826;BMP280;15077;49.704;9.908;2024-02-15T07:48:43;98486.38;;;14.74
27826;BMP280;15077;49.704;9.908;2024-02-15T07:51:15;98478.56;;;14.77
27826;BMP280;15077;49.704;9.908;2024-02-15T07:53:42;98478.41;;;14.80
27826;BMP280;15077;49.704;9.908;2024-02-15T07:56:10;98486.00;;;14.82
27826;BMP280;15077;49.704;9.908;2024-02-15T07:58:43;98486.69;;;14.85
27826;BMP280;15077;49.704;9.908;2024-02-15T08:01:15;98486.59;;;14.87
27826;BMP280;15077;49.704;9.908;2024-02-15T08:03:48;98488.06;;;14.91
27826;BMP280;15077;49.704;9.908;2024-02-15T08:06:15;98489.66;;;14.93
27826;BMP280;15077;49.704;9.908;2024-02-15T08:08:42;98486.13;;;14.96
27826;BMP280;15077;49.704;9.908;2024-02-15T08:11:11;98479.13;;;14.99
27826;BMP280;15077;49.704;9.908;2024-02-15T08:13:46;98481.50;;;15.02
27826;BMP280;15077;49.704;9.908;2024-02-15T08:16:23;98480.53;;;15.04
27826;BMP280;15077;49.704;9.908;2024-02-15T08:18:50;98493.06;;;15.09
27826;BMP280;15077;49.704;9.908;2024-02-15T08:21:27;98496.28;;;15.12
27826;BMP280;15077;49.704;9.908;2024-02-15T08:23:55;98487.63;;;15.15
27826;BMP280;15077;49.704;9.908;2024-02-15T08:26:21;98485.00;;;15.16
27826;BMP280;15077;49.704;9.908;2024-02-15T08:28:47;98484.09;;;15.17
27826;BMP280;15077;49.704;9.908;2024-02-15T08:31:12;98482.31;;;15.19
27826;BMP280;15077;49.704;9.908;2024-02-15T08:33:43;98482.25;;;15.21
27826;BMP280;15077;49.704;9.908;2024-02-15T08:36:10;98474.50;;;15.22
27826;BMP280;15077;49.704;9.908;2024-02-15T08:38:36;98470.03;;;15.26
27826;BMP280;15077;49.704;9.908;2024-02-15T08:41:03;98474.09;;;15.30
27826;BMP280;15077;49.704;9.908;2024-02-15T08:43:32;98479.03;;;15.33
27826;BMP280;15077;49.704;9.908;2024-02-15T08:45:58;98465.28;;;15.35
27826;BMP280;15077;49.704;9.908;2024-02-15T08:48:24;98465.94;;;15.39
27826;BMP280;15077;49.704;9.908;2024-02-15T08:50:51;98468.31;;;15.42
27826;BMP280;15077;49.704;9.908;2024-02-15T08:53:17;98468.16;;;15.45
27826;BMP280;15077;49.704;9.908;2024-02-15T08:55:45;98476.56;;;15.47
27826;BMP280;15077;49.704;9.908;2024-02-15T08:58:11;98470.53;;;15.48
27826;BMP280;15077;49.704;9.908;2024-02-15T09:00:36;98463.63;;;15.50
27826;BMP280;15077;49.704;9.908;2024-02-15T09:03:06;98466.94;;;15.52
27826;BMP280;15077;49.704;9.908;2024-02-15T09:05:32;98467.59;;;15.55
27826;BMP280;15077;49.704;9.908;2024-02-15T09:07:58;98470.78;;;15.58
27826;BMP280;15077;49.704;9.908;2024-02-15T09:10:23;98473.94;;;15.63
27826;BMP280;15077;49.704;9.908;2024-02-15T09:12:49;98477.97;;;15.67
27826;BMP280;15077;49.704;9.908;2024-02-15T09:15:15;98475.97;;;15.72
27826;BMP280;15077;49.704;9.908;2024-02-15T09:17:41;98474.06;;;15.76
27826;BMP280;15077;49.704;9.908;2024-02-15T09:20:10;98470.44;;;15.80
27826;BMP280;15077;49.704;9.908;2024-02-15T09:22:51;98471.09;;;15.83
27826;BMP280;15077;49.704;9.908;2024-02-15T09:25:18;98464.91;;;15.87
27826;BMP280;15077;49.704;9.908;2024-02-15T09:27:44;98472.25;;;15.93
27826;BMP280;15077;49.704;9.908;2024-02-15T09:30:11;98460.00;;;15.98
27826;BMP280;15077;49.704;9.908;2024-02-15T09:32:41;98464.06;;;16.02
27826;BMP280;15077;49.704;9.908;2024-02-15T09:35:08;98461.22;;;16.06
27826;BMP280;15077;49.704;9.908;2024-02-15T09:37:35;98458.41;;;16.11
27826;BMP280;15077;49.704;9.908;2024-02-15T09:40:01;98450.56;;;16.14
27826;BMP280;15077;49.704;9.908;2024-02-15T09:42:32;98459.72;;;16.18
27826;BMP280;15077;49.704;9.908;2024-02-15T09:45:01;98456.03;;;16.23
27826;BMP280;15077;49.704;9.908;2024-02-15T09:47:34;98454.75;;;16.30
27826;BMP280;15077;49.704;9.908;2024-02-15T09:50:06;98463.81;;;16.36
27826;BMP280;15077;49.704;9.908;2024-02-15T09:52:32;98454.88;;;16.43
27826;BMP280;15077;49.704;9.908;2024-02-15T09:55:02;98459.72;;;16.47
27826;BMP280;15077;49.704;9.908;2024-02-15T09:57:29;98450.03;;;16.52
27826;BMP280;15077;49.704;9.908;2024-02-15T09:59:57;98450.50;;;16.58
27826;BMP280;15077;49.704;9.908;2024-02-15T10:02:24;98448.50;;;16.63
27826;BMP280;15077;49.704;9.908;2024-02-15T10:04:52;98453.28;;;16.69
27826;BMP280;15077;49.704;9.908;2024-02-15T10:07:18;98449.53;;;16.75
27826;BMP280;15077;49.704;9.908;2024-02-15T10:09:43;98458.56;;;16.80
27826;BMP280;15077;49.704;9.908;2024-02-15T10:12:09;98462.41;;;16.87
27826;BMP280;15077;49.704;9.908;2024-02-15T10:14:35;98452.63;;;16.94
27826;BMP280;15077;49.704;9.908;2024-02-15T10:17:08;98447.88;;;17.01
27826;BMP280;15077;49.704;9.908;2024-02-15T10:19:40;98446.59;;;17.08
27826;BMP280;15077;49.704;9.908;2024-02-15T10:22:09;98440.06;;;17.17
27826;BMP280;15077;49.704;9.908;2024-02-15T10:24:36;98444.66;;;17.26
27826;BMP280;15077;49.704;9.908;2024-02-15T10:27:03;98440.63;;;17.36
27826;BMP280;15077;49.704;9.908;2024-02-15T10:29:30;98429.81;;;17.45
27826;BMP280;15077;49.704;9.908;2024-02-15T10:31:58;98428.22;;;17.56
27826;BMP280;15077;49.704;9.908;2024-02-15T10:34:28;98430.09;;;17.66
27826;BMP280;15077;49.704;9.908;2024-02-15T10:36:54;98441.22;;;17.79
27826;BMP280;15077;49.704;9.908;2024-02-15T10:39:23;98428.44;;;17.92
27826;BMP280;15077;49.704;9.908;2024-02-15T10:41:51;98426.84;;;18.03
27826;BMP280;15077;49.704;9.908;2024-02-15T10:44:20;98420.94;;;18.15
27826;BMP280;15077;49.704;9.908;2024-02-15T10:46:47;98418.16;;;18.30
27826;BMP280;15077;49.704;9.908;2024-02-15T10:49:20;98409.47;;;18.45
27826;BMP280;15077;49.704;9.908;2024-02-15T10:51:50;98423.66;;;18.63
27826;BMP280;15077;49.704;9.908;2024-02-15T10:55:09;98415.50;;;18.81
27826;BMP280;15077;49.704;9.908;2024-02-15T10:57:11;98410.75;;;19.00
27826;BMP280;15077;49.704;9.908;2024-02-15T11:02:26;98400.19;;;19.40
27826;BMP280;15077;49.704;9.908;2024-02-15T11:04:54;98410.81;;;19.59
27826;BMP280;15077;49.704;9.908;2024-02-15T11:07:25;98408.69;;;19.76
27826;BMP280;15077;49.704;9.908;2024-02-15T11:09:54;98402.47;;;19.91
27826;BMP280;15077;49.704;9.908;2024-02-15T11:12:24;98391.97;;;20.05
27826;BMP280;15077;49.704;9.908;2024-02-15T11:14:52;98400.19;;;20.21
27826;BMP280;15077;49.704;9.908;2024-02-15T11:20:07;98384.56;;;20.45
27826;BMP280;15077;49.704;9.908;2024-02-15T11:22:35;98383.06;;;20.54
27826;BMP280;15077;49.704;9.908;2024-02-15T11:25:03;98380.72;;;20.62
27826;BMP280;15077;49.704;9.908;2024-02-15T11:27:35;98365.63;;;20.68
27826;BMP280;15077;49.704;9.908;2024-02-15T11:30:03;98371.84;;;20.77
27826;BMP280;15077;49.704;9.908;2024-02-15T11:35:12;98368.22;;;20.90
27826;BMP280;15077;49.704;9.908;2024-02-15T11:40:18;98358.72;;;21.01
27826;BMP280;15077;49.704;9.908;2024-02-15T11:42:44;98355.78;;;21.06
27826;BMP280;15077;49.704;9.908;2024-02-15T11:45:11;98355.53;;;21.09
27826;BMP280;15077;49.704;9.908;2024-02-15T11:47:38;98354.63;;;21.10
27826;BMP280;15077;49.704;9.908;2024-02-15T11:50:09;98352.03;;;21.10
27826;BMP280;15077;49.704;9.908;2024-02-15T11:52:50;98350.84;;;21.14
27826;BMP280;15077;49.704;9.908;2024-02-15T11:55:20;98341.25;;;21.16
27826;BMP280;15077;49.704;9.908;2024-02-15T11:57:58;98346.16;;;21.19
27826;BMP280;15077;49.704;9.908;2024-02-15T12:00:42;98335.59;;;21.22
27826;BMP280;15077;49.704;9.908;2024-02-15T12:03:27;98337.00;;;21.26
27826;BMP280;15077;49.704;9.908;2024-02-15T12:06:11;98329.97;;;21.28
27826;BMP280;15077;49.704;9.908;2024-02-15T12:08:55;98331.63;;;21.29
27826;BMP280;15077;49.704;9.908;2024-02-15T12:11:40;98320.22;;;21.31
27826;BMP280;15077;49.704;9.908;2024-02-15T12:14:24;98323.28;;;21.36
27826;BMP280;15077;49.704;9.908;2024-02-15T12:17:11;98314.91;;;21.43
27826;BMP280;15077;49.704;9.908;2024-02-15T12:19:56;98319.63;;;21.49
27826;BMP280;15077;49.704;9.908;2024-02-15T12:22:33;98328.34;;;21.58
27826;BMP280;15077;49.704;9.908;2024-02-15T12:25:02;98322.56;;;21.65
27826;BMP280;15077;49.704;9.908;2024-02-15T12:27:38;98314.38;;;21.71
27826;BMP280;15077;49.704;9.908;2024-02-15T12:30:04;98319.69;;;21.79
27826;BMP280;15077;49.704;9.908;2024-02-15T12:32:32;98316.63;;;21.85
27826;BMP280;15077;49.704;9.908;2024-02-15T12:35:15;98315.81;;;21.85
27826;BMP280;15077;49.704;9.908;2024-02-15T12:38:04;98306.56;;;21.82
27826;BMP280;15077;49.704;9.908;2024-02-15T12:40:37;98307.34;;;21.83
27826;BMP280;15077;49.704;9.908;2024-02-15T12:43:07;98303.03;;;21.83
27826;BMP280;15077;49.704;9.908;2024-02-15T12:45:39;98301.13;;;21.85
27826;BMP280;15077;49.704;9.908;2024-02-15T12:48:06;98296.66;;;21.87
27826;BMP280;15077;49.704;9.908;2024-02-15T12:50:32;98293.81;;;21.90
27826;BMP280;15077;49.704;9.908;2024-02-15T12:52:59;98288.53;;;21.92
27826;BMP280;15077;49.704;9.908;2024-02-15T12:55:29;98285.69;;;21.94
27826;BMP280;15077;49.704;9.908;2024-02-15T12:58:00;98282.88;;;21.97
27826;BMP280;15077;49.704;9.908;2024-02-15T13:00:30;98282.88;;;21.97
27826;BMP280;15077;49.704;9.908;2024-02-15T13:03:00;98283.00;;;21.96
27826;BMP280;15077;49.704;9.908;2024-02-15T13:05:29;98274.81;;;21.91
27826;BMP280;15077;49.704;9.908;2024-02-15T13:07:58;98278.59;;;21.87
27826;BMP280;15077;49.704;9.908;2024-02-15T13:10:24;98275.34;;;21.85
27826;BMP280;15077;49.704;9.908;2024-02-15T13:12:52;98279.94;;;21.82
27826;BMP280;15077;49.704;9.908;2024-02-15T13:15:18;98274.91;;;21.80
27826;BMP280;15077;49.704;9.908;2024-02-15T13:17:50;98274.44;;;21.75
27826;BMP280;15077;49.704;9.908;2024-02-15T13:20:17;98265.47;;;21.70
27826;BMP280;15077;49.704;9.908;2024-02-15T13:22:46;98266.28;;;21.70
27826;BMP280;15077;49.704;9.908;2024-02-15T13:25:13;98256.88;;;21.69
27826;BMP280;15077;49.704;9.908;2024-02-15T13:27:42;98257.84;;;21.68
27826;BMP280;15077;49.704;9.908;2024-02-15T13:30:09;98262.31;;;21.66
27826;BMP280;15077;49.704;9.908;2024-02-15T13:32:36;98251.31;;;21.64
27826;BMP280;15077;49.704;9.908;2024-02-15T13:35:07;98246.16;;;21.64
27826;BMP280;15077;49.704;9.908;2024-02-15T13:37:47;98250.34;;;21.65
27826;BMP280;15077;49.704;9.908;2024-02-15T13:40:14;98243.56;;;21.64
27826;BMP280;15077;49.704;9.908;2024-02-15T13:42:44;98242.03;;;21.62
27826;BMP280;15077;49.704;9.908;2024-02-15T13:45:22;98236.34;;;21.58
27826;BMP280;15077;49.704;9.908;2024-02-15T13:47:49;98238.06;;;21.58
27826;BMP280;15077;49.704;9.908;2024-02-15T13:50:16;98224.38;;;21.57
27826;BMP280;15077;49.704;9.908;2024-02-15T13:52:43;98224.38;;;21.57
27826;BMP280;15077;49.704;9.908;2024-02-15T13:55:17;98213.91;;;21.59
27826;BMP280;15077;49.704;9.908;2024-02-15T13:57:45;98220.84;;;21.58
27826;BMP280;15077;49.704;9.908;2024-02-15T14:00:13;98216.38;;;21.60
27826;BMP280;15077;49.704;9.908;2024-02-15T14:02:53;98213.78;;;21.60
27826;BMP280;15077;49.704;9.908;2024-02-15T14:05:20;98208.63;;;21.60
27826;BMP280;15077;49.704;9.908;2024-02-15T14:07:55;98193.28;;;21.59
27826;BMP280;15077;49.704;9.908;2024-02-15T14:10:24;98206.19;;;21.59
27826;BMP280;15077;49.704;9.908;2024-02-15T14:12:51;98195.06;;;21.58
27826;BMP280;15077;49.704;9.908;2024-02-15T14:15:32;98205.50;;;21.57
27826;BMP280;15077;49.704;9.908;2024-02-15T14:18:05;98200.47;;;21.55
27826;BMP280;15077;49.704;9.908;2024-02-15T14:20:30;98197.91;;;21.55
27826;BMP280;15077;49.704;9.908;2024-02-15T14:22:56;98192.88;;;21.54
27826;BMP280;15077;49.704;9.908;2024-02-15T14:25:22;98187.56;;;21.55
27826;BMP280;15077;49.704;9.908;2024-02-15T14:27:48;98194.47;;;21.55